Time;durP1;ratioP1;P1;durP2;ratioP2;P2;SDS_P1;SDS_P2;PMS_P1;PMS_P2;Temp;Humidity;BMP_temperature;BMP_pressure;BME280_temperature;BME280_humidity;BME280_pressure;Samples;Min_cycle;Max_cycle;Signal;HPM_P1;HPM_P2
2024/01/07 00:02:14;;;;;;;5.22;2.85;;;;;;;;;;5091937;28;20036;-63
2024/01/07 00:04:40;;;;;;;1.85;1.75;;;;;;;;;;5092255;28;20462;-61
2024/01/07 00:07:06;;;;;;;6.22;3.65;;;;;;;;;;5092159;28;20157;-61
2024/01/07 00:09:31;;;;;;;4.30;3.13;;;;;;;;;;5090619;28;20127;-62
2024/01/07 00:11:57;;;;;;;3.70;2.92;;;;;;;;;;5091769;28;20421;-62
2024/01/07 00:14:23;;;;;;;6.25;3.38;;;;;;;;;;5092052;28;20205;-63
2024/01/07 00:16:48;;;;;;;7.10;3.80;;;;;;;;;;5090479;28;20044;-63
2024/01/07 00:19:14;;;;;;;8.98;3.50;;;;;;;;;;5091809;28;20107;-62
2024/01/07 00:21:39;;;;;;;3.15;2.92;;;;;;;;;;5091961;28;20150;-62
2024/01/07 00:24:05;;;;;;;2.97;2.65;;;;;;;;;;5092001;28;20056;-61
2024/01/07 00:26:31;;;;;;;5.88;2.53;;;;;;;;;;5090747;28;20032;-62
2024/01/07 00:28:56;;;;;;;5.47;2.85;;;;;;;;;;5091808;28;20486;-62
2024/01/07 00:31:22;;;;;;;5.28;3.53;;;;;;;;;;5090353;28;20050;-61
2024/01/07 00:33:47;;;;;;;5.15;2.55;;;;;;;;;;5091744;28;20044;-62
2024/01/07 00:36:13;;;;;;;2.15;1.95;;;;;;;;;;5091788;28;20050;-63
2024/01/07 00:38:39;;;;;;;5.70;3.33;;;;;;;;;;5091376;28;20032;-61
2024/01/07 00:41:04;;;;;;;4.45;2.42;;;;;;;;;;5090616;28;20405;-64
2024/01/07 00:43:30;;;;;;;5.80;2.10;;;;;;;;;;5090371;28;20067;-62
2024/01/07 00:45:55;;;;;;;3.10;2.67;;;;;;;;;;5091490;28;20043;-63
2024/01/07 00:48:21;;;;;;;7.70;2.10;;;;;;;;;;5091383;28;20394;-61
2024/01/07 00:50:47;;;;;;;3.10;2.15;;;;;;;;;;5094290;28;20505;-63
2024/01/07 00:53:12;;;;;;;5.72;2.78;;;;;;;;;;5095313;28;20075;-62
2024/01/07 00:55:38;;;;;;;3.17;2.30;;;;;;;;;;5094324;28;20110;-62
2024/01/07 00:58:04;;;;;;;2.97;2.58;;;;;;;;;;5095639;28;20060;-62
2024/01/07 01:00:29;;;;;;;9.77;3.10;;;;;;;;;;5095633;28;20413;-62
2024/01/07 01:02:55;;;;;;;4.75;2.63;;;;;;;;;;5094289;28;20040;-62
2024/01/07 01:05:21;;;;;;;2.47;2.05;;;;;;;;;;5094032;28;20036;-62
2024/01/07 01:07:47;;;;;;;2.88;2.60;;;;;;;;;;5094239;28;20044;-62
2024/01/07 01:10:14;;;;;;;1.98;1.83;;;;;;;;;;5095319;28;20040;-65
2024/01/07 01:12:40;;;;;;;1.73;1.55;;;;;;;;;;5093751;28;20509;-62
2024/01/07 01:15:06;;;;;;;3.00;1.67;;;;;;;;;;5095274;28;20036;-60
2024/01/07 01:17:31;;;;;;;2.53;2.20;;;;;;;;;;5095115;28;20036;-64
2024/01/07 01:19:57;;;;;;;16.02;4.88;;;;;;;;;;5095403;28;20042;-62
2024/01/07 01:22:22;;;;;;;4.32;2.85;;;;;;;;;;5094936;28;20054;-62
2024/01/07 01:24:48;;;;;;;3.83;3.08;;;;;;;;;;5095247;28;20116;-62
2024/01/07 01:27:15;;;;;;;1.90;1.80;;;;;;;;;;5094838;28;20047;-62
2024/01/07 01:29:41;;;;;;;3.00;1.67;;;;;;;;;;5095163;28;20478;-62
2024/01/07 01:32:06;;;;;;;5.00;2.97;;;;;;;;;;5094985;28;20044;-62
2024/01/07 01:34:33;;;;;;;2.67;2.10;;;;;;;;;;5093704;28;20036;-62
2024/01/07 01:36:59;;;;;;;2.05;1.92;;;;;;;;;;5093594;28;20127;-61
2024/01/07 01:39:24;;;;;;;2.75;2.45;;;;;;;;;;5093352;28;20128;-61
2024/01/07 01:41:50;;;;;;;4.57;4.18;;;;;;;;;;5093522;28;20036;-63
2024/01/07 01:44:16;;;;;;;2.78;2.30;;;;;;;;;;5093302;28;20036;-61
2024/01/07 01:46:41;;;;;;;3.60;2.30;;;;;;;;;;5076382;28;20488;-63
2024/01/07 01:49:08;;;;;;;3.78;3.00;;;;;;;;;;5076375;28;20032;-62
2024/01/07 01:51:33;;;;;;;3.30;2.45;;;;;;;;;;5094317;28;20044;-61
2024/01/07 01:54:00;;;;;;;2.63;2.40;;;;;;;;;;5093147;28;20502;-62
2024/01/07 01:56:27;;;;;;;4.55;2.90;;;;;;;;;;5094430;28;20340;-62
2024/01/07 01:58:53;;;;;;;2.28;1.55;;;;;;;;;;5075941;28;20401;-61
2024/01/07 02:01:18;;;;;;;5.75;2.80;;;;;;;;;;5093081;28;20039;-62
2024/01/07 02:03:44;;;;;;;2.03;1.92;;;;;;;;;;5094467;28;20043;-62
2024/01/07 02:06:11;;;;;;;5.03;4.05;;;;;;;;;;5094467;28;20127;-64
2024/01/07 02:08:38;;;;;;;6.00;2.53;;;;;;;;;;5094367;28;20044;-62
2024/01/07 02:11:14;;;;;;;1.92;1.80;;;;;;;;;;5076436;28;20036;-60
2024/01/07 02:13:40;;;;;;;2.83;1.98;;;;;;;;;;5092739;28;20414;-61
2024/01/07 02:16:05;;;;;;;6.00;2.65;;;;;;;;;;5093044;28;20032;-63
2024/01/07 02:18:31;;;;;;;3.75;2.72;;;;;;;;;;5094075;28;20032;-61
2024/01/07 02:20:56;;;;;;;3.42;3.03;;;;;;;;;;5092725;28;20143;-62
2024/01/07 02:23:22;;;;;;;5.18;2.67;;;;;;;;;;5093624;28;20032;-61
2024/01/07 02:25:48;;;;;;;10.65;4.63;;;;;;;;;;5092668;28;20089;-64
2024/01/07 02:28:13;;;;;;;1.90;1.67;;;;;;;;;;5093855;28;20024;-62
2024/01/07 02:30:39;;;;;;;3.05;1.90;;;;;;;;;;5092516;28;20465;-62
2024/01/07 02:33:04;;;;;;;5.20;2.83;;;;;;;;;;5092491;28;20043;-61
2024/01/07 02:35:30;;;;;;;5.47;2.67;;;;;;;;;;5093600;28;20032;-62
2024/01/07 02:37:56;;;;;;;2.85;1.60;;;;;;;;;;5093854;28;20044;-62
2024/01/07 02:40:21;;;;;;;3.47;2.33;;;;;;;;;;5093501;28;20084;-62
2024/01/07 02:42:47;;;;;;;4.78;3.38;;;;;;;;;;5092259;28;20036;-61
2024/01/07 02:45:13;;;;;;;4.80;2.45;;;;;;;;;;5092439;28;20115;-62
2024/01/07 02:47:38;;;;;;;6.15;2.35;;;;;;;;;;5093688;28;20036;-62
2024/01/07 02:50:04;;;;;;;12.45;3.17;;;;;;;;;;5093422;28;20525;-62
2024/01/07 02:52:30;;;;;;;5.40;2.25;;;;;;;;;;5091755;28;20064;-60
2024/01/07 02:54:56;;;;;;;3.35;2.78;;;;;;;;;;5093534;28;20051;-62
2024/01/07 02:57:21;;;;;;;5.68;3.42;;;;;;;;;;5093113;28;20042;-63
2024/01/07 02:59:47;;;;;;;1.65;1.60;;;;;;;;;;5091944;28;20212;-62
2024/01/07 03:02:13;;;;;;;2.63;2.42;;;;;;;;;;5091813;28;20086;-62
2024/01/07 03:04:39;;;;;;;1.95;1.83;;;;;;;;;;5093282;28;20032;-60
2024/01/07 03:07:04;;;;;;;2.63;2.03;;;;;;;;;;5074834;28;20493;-63
2024/01/07 03:09:30;;;;;;;4.28;2.90;;;;;;;;;;5091806;28;20031;-63
2024/01/07 03:11:55;;;;;;;4.75;2.15;;;;;;;;;;5092476;28;20036;-61
2024/01/07 03:14:21;;;;;;;3.85;1.85;;;;;;;;;;5093090;28;20040;-61
2024/01/07 03:16:47;;;;;;;4.57;2.05;;;;;;;;;;5093088;28;20406;-62
2024/01/07 03:19:13;;;;;;;7.60;2.13;;;;;;;;;;5091650;28;20043;-62
2024/01/07 03:21:39;;;;;;;2.80;2.08;;;;;;;;;;5092831;28;20556;-64
2024/01/07 03:24:04;;;;;;;1.85;1.08;;;;;;;;;;5092402;28;20439;-62
2024/01/07 03:26:32;;;;;;;2.15;1.95;;;;;;;;;;5092492;28;20173;-63
2024/01/07 03:28:59;;;;;;;4.88;2.50;;;;;;;;;;5091214;28;20413;-62
2024/01/07 03:31:25;;;;;;;1.33;1.33;;;;;;;;;;5092596;28;20477;-63
2024/01/07 03:33:51;;;;;;;1.20;1.13;;;;;;;;;;5092447;28;20058;-62
2024/01/07 03:36:16;;;;;;;4.32;2.28;;;;;;;;;;5091100;28;20409;-64
2024/01/07 03:38:42;;;;;;;4.75;2.22;;;;;;;;;;5092726;28;20036;-61
2024/01/07 03:41:08;;;;;;;3.92;2.60;;;;;;;;;;5092623;28;20040;-64
2024/01/07 03:43:34;;;;;;;8.48;2.13;;;;;;;;;;5090918;28;20545;-60
2024/01/07 03:46:00;;;;;;;4.10;2.60;;;;;;;;;;5092424;28;20039;-64
2024/01/07 03:48:26;;;;;;;4.07;3.03;;;;;;;;;;5073980;28;20028;-62
2024/01/07 03:50:51;;;;;;;2.00;1.90;;;;;;;;;;5092387;28;20077;-63
2024/01/07 03:53:17;;;;;;;2.45;2.22;;;;;;;;;;5091972;28;20485;-61
2024/01/07 03:55:43;;;;;;;9.48;1.90;;;;;;;;;;5092109;28;20040;-63
2024/01/07 03:58:08;;;;;;;2.92;2.72;;;;;;;;;;5092074;28;20035;-62
2024/01/07 04:00:34;;;;;;;2.80;2.03;;;;;;;;;;5092117;28;20036;-63
2024/01/07 04:03:00;;;;;;;1.50;1.40;;;;;;;;;;5091872;28;20469;-61
2024/01/07 04:05:26;;;;;;;3.95;2.60;;;;;;;;;;5090678;28;20502;-62
2024/01/07 04:07:52;;;;;;;2.00;1.48;;;;;;;;;;5091988;28;20039;-61
2024/01/07 04:10:18;;;;;;;1.98;1.88;;;;;;;;;;5092018;28;20032;-61
2024/01/07 04:12:44;;;;;;;2.67;2.47;;;;;;;;;;5091895;28;20048;-62
2024/01/07 04:15:13;;;;;;;2.20;2.00;;;;;;;;;;5091927;28;20084;-61
2024/01/07 04:17:39;;;;;;;3.42;2.03;;;;;;;;;;5090816;28;20038;-62
2024/01/07 04:20:05;;;;;;;2.13;1.70;;;;;;;;;;5090509;28;20408;-62
2024/01/07 04:22:31;;;;;;;1.35;1.35;;;;;;;;;;5091301;28;20028;-61
2024/01/07 04:24:57;;;;;;;2.92;1.77;;;;;;;;;;5092023;28;20401;-61
2024/01/07 04:27:24;;;;;;;5.60;2.53;;;;;;;;;;5091881;28;20036;-63
2024/01/07 04:29:50;;;;;;;1.67;1.67;;;;;;;;;;5091998;28;20036;-61
2024/01/07 04:32:16;;;;;;;1.58;1.52;;;;;;;;;;5091382;28;20360;-61
2024/01/07 04:34:41;;;;;;;1.48;1.42;;;;;;;;;;5090396;28;20051;-61
2024/01/07 04:37:07;;;;;;;1.42;1.38;;;;;;;;;;5091598;28;20528;-63
2024/01/07 04:39:33;;;;;;;2.08;1.88;;;;;;;;;;5091498;28;20402;-62
2024/01/07 04:41:58;;;;;;;5.22;2.47;;;;;;;;;;5091387;28;20040;-62
2024/01/07 04:44:24;;;;;;;1.40;1.40;;;;;;;;;;5090356;28;20031;-61
2024/01/07 04:46:50;;;;;;;1.50;1.40;;;;;;;;;;5090199;28;20043;-62
2024/01/07 04:49:15;;;;;;;1.75;1.65;;;;;;;;;;5091605;28;20052;-60
2024/01/07 04:51:41;;;;;;;2.67;2.47;;;;;;;;;;5091833;28;20044;-62
2024/01/07 04:54:06;;;;;;;8.60;1.55;;;;;;;;;;5091335;28;20056;-61
2024/01/07 04:56:32;;;;;;;2.13;1.98;;;;;;;;;;5090174;28;20040;-62
2024/01/07 04:58:58;;;;;;;8.05;2.45;;;;;;;;;;5091574;28;20074;-62
2024/01/07 05:01:23;;;;;;;1.50;1.42;;;;;;;;;;5091455;28;20039;-63
2024/01/07 05:03:49;;;;;;;2.40;2.30;;;;;;;;;;5091558;28;20036;-61
2024/01/07 05:06:15;;;;;;;0.98;0.98;;;;;;;;;;5091224;28;20520;-64
2024/01/07 05:08:41;;;;;;;3.10;2.80;;;;;;;;;;5091307;28;20036;-61
2024/01/07 05:11:07;;;;;;;3.55;2.35;;;;;;;;;;5091450;28;20032;-61
2024/01/07 05:13:32;;;;;;;3.17;2.97;;;;;;;;;;5090032;28;20047;-61
2024/01/07 05:15:58;;;;;;;3.92;3.50;;;;;;;;;;5090277;28;20062;-62
2024/01/07 05:18:24;;;;;;;2.92;1.85;;;;;;;;;;5072920;28;20051;-62
2024/01/07 05:20:50;;;;;;;3.33;2.72;;;;;;;;;;5091189;28;20123;-63
2024/01/07 05:23:15;;;;;;;6.18;2.28;;;;;;;;;;5091123;28;20496;-63
2024/01/07 05:25:44;;;;;;;1.52;1.52;;;;;;;;;;5091461;28;20154;-62
2024/01/07 05:28:13;;;;;;;1.52;1.50;;;;;;;;;;5089837;28;20032;-61
2024/01/07 05:30:39;;;;;;;5.93;2.75;;;;;;;;;;5090300;28;20036;-62
2024/01/07 05:33:05;;;;;;;1.75;1.55;;;;;;;;;;5091307;28;20052;-61
2024/01/07 05:35:31;;;;;;;2.10;1.92;;;;;;;;;;5094292;28;20040;-62
2024/01/07 05:37:57;;;;;;;1.05;1.02;;;;;;;;;;5093735;28;20075;-62
2024/01/07 05:40:22;;;;;;;4.28;2.58;;;;;;;;;;5094925;28;20032;-62
2024/01/07 05:42:48;;;;;;;1.35;1.35;;;;;;;;;;5094543;28;20490;-60
2024/01/07 05:45:13;;;;;;;0.95;0.95;;;;;;;;;;5094674;28;20088;-62
2024/01/07 05:47:40;;;;;;;1.52;1.42;;;;;;;;;;5093289;28;20028;-62
2024/01/07 05:50:06;;;;;;;2.15;2.05;;;;;;;;;;5094462;28;20036;-62
2024/01/07 05:52:32;;;;;;;5.82;2.08;;;;;;;;;;5094357;28;20059;-61
2024/01/07 05:54:58;;;;;;;2.38;2.25;;;;;;;;;;5094887;28;20039;-61
2024/01/07 05:57:23;;;;;;;2.83;2.50;;;;;;;;;;5094561;28;20038;-62
2024/01/07 05:59:50;;;;;;;1.10;1.10;;;;;;;;;;5094788;28;20032;-61
2024/01/07 06:02:17;;;;;;;2.65;2.45;;;;;;;;;;5094565;28;20032;-62
2024/01/07 06:04:43;;;;;;;3.28;3.05;;;;;;;;;;5094738;28;20121;-62
2024/01/07 06:07:08;;;;;;;4.75;2.30;;;;;;;;;;5076412;28;20082;-63
2024/01/07 06:09:34;;;;;;;3.72;2.38;;;;;;;;;;5094592;28;20036;-61
2024/01/07 06:12:00;;;;;;;2.60;1.10;;;;;;;;;;5092934;28;20043;-61
2024/01/07 06:14:25;;;;;;;1.20;1.20;;;;;;;;;;5094325;28;20040;-61
2024/01/07 06:16:52;;;;;;;2.42;1.90;;;;;;;;;;5092970;28;20040;-63
2024/01/07 06:19:17;;;;;;;15.10;4.22;;;;;;;;;;5094150;28;20040;-62
2024/01/07 06:21:43;;;;;;;1.20;1.20;;;;;;;;;;5076110;28;20039;-60
2024/01/07 06:24:09;;;;;;;1.58;1.50;;;;;;;;;;5094033;28;20036;-62
2024/01/07 06:26:34;;;;;;;2.28;2.10;;;;;;;;;;5092682;28;20040;-63
2024/01/07 06:29:01;;;;;;;2.22;2.13;;;;;;;;;;5093991;28;20089;-61
2024/01/07 06:31:26;;;;;;;2.60;1.88;;;;;;;;;;5093980;28;20496;-61
2024/01/07 06:33:52;;;;;;;2.80;2.42;;;;;;;;;;5093771;28;20043;-62
2024/01/07 06:36:18;;;;;;;0.80;0.80;;;;;;;;;;5093949;28;20079;-62
2024/01/07 06:38:43;;;;;;;3.50;2.00;;;;;;;;;;5092220;28;20032;-60
2024/01/07 06:41:09;;;;;;;3.40;3.08;;;;;;;;;;5093762;28;20036;-63
2024/01/07 06:43:35;;;;;;;3.30;2.20;;;;;;;;;;5093689;28;20052;-63
2024/01/07 06:46:01;;;;;;;1.63;1.52;;;;;;;;;;5092343;28;20477;-63
2024/01/07 06:48:27;;;;;;;1.35;1.25;;;;;;;;;;5093297;28;20066;-61
2024/01/07 06:50:52;;;;;;;3.03;1.83;;;;;;;;;;5093464;28;20032;-63
2024/01/07 06:53:18;;;;;;;2.83;1.60;;;;;;;;;;5092842;28;20475;-62
2024/01/07 06:55:43;;;;;;;4.97;3.75;;;;;;;;;;5093507;28;20039;-61
2024/01/07 06:58:09;;;;;;;2.28;2.00;;;;;;;;;;5093167;28;20040;-62
2024/01/07 07:00:35;;;;;;;1.75;1.65;;;;;;;;;;5093342;28;20066;-64
2024/01/07 07:03:00;;;;;;;1.67;1.58;;;;;;;;;;5091833;28;20477;-62
2024/01/07 07:05:26;;;;;;;2.90;2.70;;;;;;;;;;5093199;28;20048;-63
2024/01/07 07:07:52;;;;;;;4.35;2.50;;;;;;;;;;5091641;28;20043;-60
2024/01/07 07:10:18;;;;;;;1.73;1.65;;;;;;;;;;5091554;28;20036;-63
2024/01/07 07:12:44;;;;;;;4.22;2.38;;;;;;;;;;5091544;28;20052;-62
2024/01/07 07:15:10;;;;;;;1.77;1.67;;;;;;;;;;5092941;28;20382;-61
2024/01/07 07:17:38;;;;;;;14.70;3.65;;;;;;;;;;5092714;28;20519;-61
2024/01/07 07:20:05;;;;;;;1.10;1.10;;;;;;;;;;5092816;28;20038;-62
2024/01/07 07:22:30;;;;;;;1.75;1.55;;;;;;;;;;5092352;28;20588;-63
2024/01/07 07:24:56;;;;;;;2.47;2.13;;;;;;;;;;5093010;28;20341;-62
2024/01/07 07:27:21;;;;;;;1.88;1.73;;;;;;;;;;5091608;28;20497;-65
2024/01/07 07:29:47;;;;;;;2.25;2.15;;;;;;;;;;5092928;28;20363;-61
2024/01/07 07:32:13;;;;;;;2.05;1.45;;;;;;;;;;5092300;28;20058;-63
2024/01/07 07:34:38;;;;;;;4.05;2.10;;;;;;;;;;5092552;28;20039;-62
2024/01/07 07:37:04;;;;;;;3.35;3.08;;;;;;;;;;5092224;28;20105;-63
2024/01/07 07:39:29;;;;;;;4.82;2.08;;;;;;;;;;5092324;28;20036;-62
2024/01/07 07:41:55;;;;;;;4.20;2.85;;;;;;;;;;5092473;28;20138;-63
2024/01/07 07:44:21;;;;;;;2.28;2.08;;;;;;;;;;5091099;28;20035;-62
2024/01/07 07:46:46;;;;;;;1.58;1.48;;;;;;;;;;5091127;28;20739;-64
2024/01/07 07:49:12;;;;;;;1.27;1.27;;;;;;;;;;5092430;28;20039;-61
2024/01/07 07:51:38;;;;;;;5.15;2.67;;;;;;;;;;5092078;28;20054;-62
2024/01/07 07:54:04;;;;;;;10.65;3.35;;;;;;;;;;5092135;28;20104;-62
2024/01/07 07:56:29;;;;;;;2.05;1.92;;;;;;;;;;5092316;28;20447;-62
2024/01/07 07:58:55;;;;;;;2.58;2.38;;;;;;;;;;5092041;28;20047;-62
2024/01/07 08:01:20;;;;;;;2.05;1.83;;;;;;;;;;5090678;28;20413;-65
2024/01/07 08:03:46;;;;;;;2.92;2.28;;;;;;;;;;5092115;28;20032;-61
2024/01/07 08:06:12;;;;;;;2.72;2.53;;;;;;;;;;5090892;28;20402;-62
2024/01/07 08:08:37;;;;;;;1.73;1.63;;;;;;;;;;5091971;28;20035;-62
2024/01/07 08:11:06;;;;;;;6.30;1.90;;;;;;;;;;5092130;28;20035;-62
2024/01/07 08:13:35;;;;;;;2.08;1.98;;;;;;;;;;5090581;28;20051;-61
2024/01/07 08:16:00;;;;;;;2.85;2.55;;;;;;;;;;5090475;28;20136;-63
2024/01/07 08:18:26;;;;;;;3.95;2.47;;;;;;;;;;5090396;28;20124;-63
2024/01/07 08:20:52;;;;;;;2.60;1.98;;;;;;;;;;5091594;28;20059;-65
2024/01/07 08:23:17;;;;;;;2.55;2.45;;;;;;;;;;5091437;28;20036;-62
2024/01/07 08:25:44;;;;;;;3.63;2.00;;;;;;;;;;5091825;28;20139;-63
2024/01/07 08:28:10;;;;;;;2.15;1.98;;;;;;;;;;5090276;28;20032;-62
2024/01/07 08:30:36;;;;;;;2.85;2.50;;;;;;;;;;5090140;28;20085;-61
2024/01/07 08:33:01;;;;;;;2.50;1.77;;;;;;;;;;5091329;28;20063;-62
2024/01/07 08:35:27;;;;;;;4.05;2.17;;;;;;;;;;5091005;28;20040;-62
2024/01/07 08:37:52;;;;;;;10.13;4.43;;;;;;;;;;5091411;28;20034;-62
2024/01/07 08:40:18;;;;;;;5.65;3.03;;;;;;;;;;5073161;28;20059;-63
2024/01/07 08:42:45;;;;;;;3.05;2.83;;;;;;;;;;5091196;28;20042;-61
2024/01/07 08:45:11;;;;;;;6.40;2.85;;;;;;;;;;5091393;28;20039;-62
2024/01/07 08:47:37;;;;;;;9.30;5.30;;;;;;;;;;5090012;28;20574;-62
2024/01/07 08:50:03;;;;;;;6.30;2.92;;;;;;;;;;5090356;28;20039;-62
2024/01/07 08:52:30;;;;;;;8.65;3.72;;;;;;;;;;5089989;28;20534;-62
2024/01/07 08:54:55;;;;;;;11.10;3.20;;;;;;;;;;5091838;28;20032;-61
2024/01/07 08:57:21;;;;;;;4.30;2.88;;;;;;;;;;5090120;28;20114;-62
2024/01/07 08:59:46;;;;;;;20.60;5.78;;;;;;;;;;5091707;28;20043;-62
2024/01/07 09:02:13;;;;;;;10.57;4.95;;;;;;;;;;5090391;28;20066;-63
2024/01/07 09:04:39;;;;;;;10.48;6.20;;;;;;;;;;5090059;28;20082;-61
2024/01/07 09:07:04;;;;;;;9.65;3.63;;;;;;;;;;5091310;28;20032;-63
2024/01/07 09:09:30;;;;;;;4.88;3.60;;;;;;;;;;5092950;28;20547;-62
2024/01/07 09:11:57;;;;;;;4.82;4.00;;;;;;;;;;5095251;28;20127;-63
2024/01/07 09:14:25;;;;;;;6.40;2.97;;;;;;;;;;5095343;28;20048;-62
2024/01/07 09:16:50;;;;;;;6.97;3.30;;;;;;;;;;5095033;28;20501;-62
2024/01/07 09:19:17;;;;;;;3.50;3.05;;;;;;;;;;5093834;28;20093;-61
2024/01/07 09:21:43;;;;;;;4.75;2.80;;;;;;;;;;5095060;28;20051;-62
2024/01/07 09:24:09;;;;;;;2.05;1.95;;;;;;;;;;5095169;28;20036;-61
2024/01/07 09:26:34;;;;;;;2.38;2.28;;;;;;;;;;5094937;28;20047;-63
2024/01/07 09:29:01;;;;;;;4.35;3.88;;;;;;;;;;5093809;28;20040;-61
2024/01/07 09:31:27;;;;;;;3.72;3.33;;;;;;;;;;5095066;28;20083;-62
2024/01/07 09:33:52;;;;;;;4.47;4.07;;;;;;;;;;5094912;28;20063;-63
2024/01/07 09:36:18;;;;;;;5.57;4.28;;;;;;;;;;5093728;28;20036;-63
2024/01/07 09:38:44;;;;;;;5.47;3.03;;;;;;;;;;5094830;28;20576;-62
2024/01/07 09:41:09;;;;;;;3.83;3.53;;;;;;;;;;5094889;28;20036;-63
2024/01/07 09:43:35;;;;;;;5.35;3.20;;;;;;;;;;5093187;28;20519;-63
2024/01/07 09:46:01;;;;;;;5.53;3.90;;;;;;;;;;5094547;28;20520;-64
2024/01/07 09:48:27;;;;;;;5.07;4.47;;;;;;;;;;5094734;28;20047;-62
2024/01/07 09:50:53;;;;;;;7.32;4.50;;;;;;;;;;5094712;28;20032;-63
2024/01/07 09:53:20;;;;;;;9.00;3.85;;;;;;;;;;5093006;28;20210;-62
2024/01/07 09:55:51;;;;;;;13.85;5.53;;;;;;;;;;5094364;28;20044;-62
2024/01/07 09:58:17;;;;;;;9.93;5.03;;;;;;;;;;5094421;28;20050;-62
2024/01/07 10:00:43;;;;;;;3.53;3.28;;;;;;;;;;5093285;28;20040;-64
2024/01/07 10:03:08;;;;;;;4.75;3.88;;;;;;;;;;5094464;28;20122;-62
2024/01/07 10:05:34;;;;;;;9.13;4.90;;;;;;;;;;5094427;28;20036;-63
2024/01/07 10:08:00;;;;;;;4.75;4.15;;;;;;;;;;5094117;28;20553;-62
2024/01/07 10:10:25;;;;;;;8.88;4.43;;;;;;;;;;5092854;28;20090;-63
2024/01/07 10:12:52;;;;;;;6.53;4.60;;;;;;;;;;5092642;28;20462;-61
2024/01/07 10:15:18;;;;;;;6.35;3.63;;;;;;;;;;5092716;28;20043;-61
2024/01/07 10:17:45;;;;;;;9.57;6.03;;;;;;;;;;5094135;28;20059;-60
2024/01/07 10:20:11;;;;;;;10.15;5.70;;;;;;;;;;5093618;28;20124;-62
2024/01/07 10:22:40;;;;;;;14.57;7.10;;;;;;;;;;5092560;28;20227;-64
2024/01/07 10:25:06;;;;;;;14.07;4.68;;;;;;;;;;5093926;28;20066;-63
2024/01/07 10:27:35;;;;;;;7.03;4.25;;;;;;;;;;5092239;28;20082;-62
2024/01/07 10:30:02;;;;;;;11.40;4.78;;;;;;;;;;5075330;28;20047;-62
2024/01/07 10:32:31;;;;;;;4.43;3.97;;;;;;;;;;5093512;28;20127;-63
2024/01/07 10:35:04;;;;;;;2.80;2.55;;;;;;;;;;5094057;28;20122;-62
2024/01/07 10:37:31;;;;;;;4.88;3.28;;;;;;;;;;5093997;28;20035;-61
2024/01/07 10:40:02;;;;;;;2.85;2.55;;;;;;;;;;5093781;28;20460;-62
2024/01/07 10:42:31;;;;;;;4.25;3.38;;;;;;;;;;5093482;28;20056;-62
2024/01/07 10:44:57;;;;;;;5.65;2.97;;;;;;;;;;5093529;28;20085;-62
2024/01/07 10:47:23;;;;;;;7.68;3.30;;;;;;;;;;5093305;28;20028;-63
2024/01/07 10:49:50;;;;;;;3.00;2.72;;;;;;;;;;5093478;28;20421;-63
2024/01/07 10:52:16;;;;;;;2.13;1.65;;;;;;;;;;5092741;28;20413;-63
2024/01/07 10:54:42;;;;;;;2.50;2.15;;;;;;;;;;5093380;28;20044;-62
2024/01/07 10:57:08;;;;;;;3.85;2.33;;;;;;;;;;5093445;28;20039;-62
2024/01/07 10:59:34;;;;;;;3.08;2.85;;;;;;;;;;5091937;28;20036;-63
2024/01/07 11:02:00;;;;;;;3.70;3.40;;;;;;;;;;5092073;28;20036;-63
2024/01/07 11:04:34;;;;;;;7.25;3.60;;;;;;;;;;5091849;28;20046;-63
2024/01/07 11:07:03;;;;;;;4.88;2.80;;;;;;;;;;5093268;28;20112;-62
2024/01/07 11:09:29;;;;;;;4.03;2.20;;;;;;;;;;5093296;28;20038;-63
2024/01/07 11:11:55;;;;;;;4.45;2.78;;;;;;;;;;5091983;28;20839;-64
2024/01/07 11:14:36;;;;;;;5.28;2.88;;;;;;;;;;5093031;28;20052;-64
2024/01/07 11:17:03;;;;;;;6.47;3.33;;;;;;;;;;5092931;28;20097;-64
2024/01/07 11:19:28;;;;;;;2.22;2.03;;;;;;;;;;5093174;28;20077;-63
2024/01/07 11:22:13;;;;;;;9.20;4.00;;;;;;;;;;5091570;28;20611;-65
2024/01/07 11:24:38;;;;;;;6.97;3.33;;;;;;;;;;5091632;28;20040;-63
2024/01/07 11:27:04;;;;;;;5.72;3.42;;;;;;;;;;5092675;28;20046;-65
2024/01/07 11:29:33;;;;;;;7.35;3.85;;;;;;;;;;5092937;28;20031;-61
2024/01/07 11:31:59;;;;;;;7.07;3.95;;;;;;;;;;5090799;28;20127;-63
2024/01/07 11:34:43;;;;;;;11.50;4.65;;;;;;;;;;5091186;28;20139;-62
2024/01/07 11:37:13;;;;;;;3.67;3.30;;;;;;;;;;5092285;28;20511;-64
2024/01/07 11:39:42;;;;;;;3.60;3.00;;;;;;;;;;5091158;28;20032;-63
2024/01/07 11:42:07;;;;;;;5.13;2.72;;;;;;;;;;5090676;28;20044;-63
2024/01/07 11:44:34;;;;;;;8.82;4.22;;;;;;;;;;5092199;28;20039;-61
2024/01/07 11:46:59;;;;;;;8.63;4.32;;;;;;;;;;5092286;28;20078;-63
2024/01/07 11:49:25;;;;;;;12.20;6.25;;;;;;;;;;5092524;28;20059;-62
2024/01/07 11:51:51;;;;;;;14.75;5.55;;;;;;;;;;5092152;28;20037;-61
2024/01/07 11:54:17;;;;;;;3.97;3.35;;;;;;;;;;5090781;28;20129;-62
2024/01/07 11:56:43;;;;;;;9.23;4.47;;;;;;;;;;5092294;28;20446;-62
2024/01/07 11:59:08;;;;;;;4.50;3.55;;;;;;;;;;5092274;28;20040;-62
2024/01/07 12:01:34;;;;;;;7.40;3.08;;;;;;;;;;5090867;28;20085;-61
2024/01/07 12:04:00;;;;;;;5.03;3.05;;;;;;;;;;5092244;28;20051;-63
2024/01/07 12:06:26;;;;;;;7.05;4.53;;;;;;;;;;5092161;28;20040;-63
2024/01/07 12:08:52;;;;;;;7.47;4.03;;;;;;;;;;5092022;28;20466;-64
2024/01/07 12:11:18;;;;;;;9.75;5.40;;;;;;;;;;5092019;28;20040;-63
2024/01/07 12:13:44;;;;;;;8.32;4.38;;;;;;;;;;5091392;28;20105;-63
2024/01/07 12:16:10;;;;;;;8.13;3.70;;;;;;;;;;5091872;28;20035;-61
2024/01/07 12:18:36;;;;;;;4.00;3.33;;;;;;;;;;5091891;28;20120;-62
2024/01/07 12:21:02;;;;;;;6.22;4.10;;;;;;;;;;5091758;28;20505;-63
2024/01/07 12:23:28;;;;;;;10.52;4.90;;;;;;;;;;5090335;28;20101;-63
2024/01/07 12:25:54;;;;;;;6.03;3.55;;;;;;;;;;5091671;28;20032;-63
2024/01/07 12:28:19;;;;;;;5.65;2.92;;;;;;;;;;5091380;28;20039;-62
2024/01/07 12:30:47;;;;;;;11.48;4.90;;;;;;;;;;5078180;28;20037;-64
2024/01/07 12:33:15;;;;;;;4.63;3.13;;;;;;;;;;5083114;28;20048;-62
2024/01/07 12:35:41;;;;;;;8.88;3.83;;;;;;;;;;5091568;28;20032;-59
2024/01/07 12:38:07;;;;;;;10.00;4.65;;;;;;;;;;5091564;28;20043;-59
2024/01/07 12:40:33;;;;;;;11.05;3.58;;;;;;;;;;5090442;28;20397;-63
2024/01/07 12:42:58;;;;;;;5.43;3.50;;;;;;;;;;5091444;28;20031;-61
2024/01/07 12:45:24;;;;;;;9.73;4.65;;;;;;;;;;5094385;28;20510;-64
2024/01/07 12:47:49;;;;;;;9.52;3.88;;;;;;;;;;5095842;28;20036;-63
2024/01/07 12:50:15;;;;;;;7.93;4.88;;;;;;;;;;5087544;28;20086;-62
2024/01/07 12:52:41;;;;;;;6.03;3.42;;;;;;;;;;5092865;28;20067;-63
2024/01/07 12:55:07;;;;;;;8.27;4.32;;;;;;;;;;5094338;28;20040;-61
2024/01/07 12:57:33;;;;;;;5.55;4.30;;;;;;;;;;5094386;28;20032;-62
2024/01/07 12:59:59;;;;;;;8.23;3.67;;;;;;;;;;5095187;28;20039;-60
2024/01/07 13:02:24;;;;;;;8.48;4.95;;;;;;;;;;5095366;28;20036;-65
2024/01/07 13:04:50;;;;;;;13.35;5.85;;;;;;;;;;5093467;28;20127;-61
2024/01/07 13:07:16;;;;;;;10.50;4.03;;;;;;;;;;5093842;28;20054;-60
2024/01/07 13:09:42;;;;;;;10.93;4.43;;;;;;;;;;5095216;28;20089;-62
2024/01/07 13:12:07;;;;;;;11.02;4.25;;;;;;;;;;5093845;28;20040;-60
2024/01/07 13:14:33;;;;;;;7.40;4.68;;;;;;;;;;5095367;28;20133;-62
2024/01/07 13:16:59;;;;;;;8.75;4.30;;;;;;;;;;5095334;28;20032;-61
2024/01/07 13:19:26;;;;;;;9.00;4.85;;;;;;;;;;5076879;28;20485;-63
2024/01/07 13:21:55;;;;;;;2.53;2.33;;;;;;;;;;5095089;28;20036;-62
2024/01/07 13:24:21;;;;;;;8.43;3.38;;;;;;;;;;5093768;28;20039;-63
2024/01/07 13:26:48;;;;;;;6.68;4.60;;;;;;;;;;5093812;28;20051;-62
2024/01/07 13:29:13;;;;;;;4.97;4.28;;;;;;;;;;5093355;28;20036;-60
2024/01/07 13:31:39;;;;;;;9.73;3.40;;;;;;;;;;5086892;28;20060;-63
2024/01/07 13:34:05;;;;;;;9.52;6.97;;;;;;;;;;5073415;28;20052;-63
2024/01/07 13:36:30;;;;;;;19.17;8.43;;;;;;;;;;5074534;28;20556;-61
2024/01/07 13:38:56;;;;;;;11.40;7.45;;;;;;;;;;5074530;28;20561;-61
2024/01/07 13:41:23;;;;;;;11.40;5.82;;;;;;;;;;5074601;28;20044;-63
2024/01/07 13:43:49;;;;;;;7.90;4.90;;;;;;;;;;5074002;28;20035;-61
2024/01/07 13:46:15;;;;;;;8.82;3.60;;;;;;;;;;5073903;28;20048;-64
2024/01/07 13:48:42;;;;;;;7.93;4.47;;;;;;;;;;5074510;28;20110;-62
2024/01/07 13:51:08;;;;;;;9.75;4.25;;;;;;;;;;5079229;28;20402;-63
2024/01/07 13:53:34;;;;;;;3.85;3.47;;;;;;;;;;5092883;28;20055;-62
2024/01/07 13:56:00;;;;;;;6.90;4.40;;;;;;;;;;5093893;28;20047;-63
2024/01/07 13:58:26;;;;;;;7.85;3.95;;;;;;;;;;5094175;28;20040;-64
2024/01/07 14:00:52;;;;;;;5.22;3.08;;;;;;;;;;5094320;28;20071;-65
2024/01/07 14:03:18;;;;;;;11.60;4.50;;;;;;;;;;5094246;28;20127;-63
2024/01/07 14:05:43;;;;;;;7.18;4.30;;;;;;;;;;5094133;28;20115;-65
2024/01/07 14:08:09;;;;;;;9.20;4.50;;;;;;;;;;5094255;28;20031;-63
2024/01/07 14:10:36;;;;;;;14.15;5.13;;;;;;;;;;5094304;28;20048;-64
2024/01/07 14:13:02;;;;;;;9.43;5.65;;;;;;;;;;5094193;28;20302;-61
2024/01/07 14:15:28;;;;;;;4.70;3.22;;;;;;;;;;5093947;28;20089;-65
2024/01/07 14:17:54;;;;;;;5.50;4.35;;;;;;;;;;5093760;28;20040;-63
2024/01/07 14:20:21;;;;;;;4.85;3.45;;;;;;;;;;5094084;28;20051;-64
2024/01/07 14:22:47;;;;;;;6.45;3.08;;;;;;;;;;5093986;28;20028;-62
2024/01/07 14:25:14;;;;;;;5.85;2.67;;;;;;;;;;5093739;28;20162;-64
2024/01/07 14:27:40;;;;;;;5.30;2.45;;;;;;;;;;5092462;28;20036;-63
2024/01/07 14:30:06;;;;;;;7.38;4.00;;;;;;;;;;5093684;28;20047;-62
2024/01/07 14:32:33;;;;;;;4.55;2.25;;;;;;;;;;5093813;28;20032;-65
2024/01/07 14:34:59;;;;;;;4.35;3.63;;;;;;;;;;5093502;28;20097;-62